createdAt,value
2018-07-16T00:01:06.384Z,5.77
2018-07-16T00:03:35.030Z,5.97
2018-07-16T00:06:03.644Z,5.40
2018-07-16T00:08:32.261Z,6.00
2018-07-16T00:11:00.873Z,5.77
2018-07-16T00:13:29.554Z,5.87
2018-07-16T00:15:58.134Z,5.40
2018-07-16T00:18:27.003Z,5.50
2018-07-16T00:20:55.580Z,6.00
2018-07-16T00:23:24.178Z,5.70
2018-07-16T00:25:52.722Z,6.00
2018-07-16T00:28:21.326Z,5.87
2018-07-16T00:30:49.910Z,5.53
2018-07-16T00:33:18.507Z,5.60
2018-07-16T00:35:47.107Z,5.90
2018-07-16T00:38:15.700Z,5.20
2018-07-16T00:40:44.316Z,5.43
2018-07-16T00:43:12.969Z,5.70
2018-07-16T00:45:41.570Z,5.33
2018-07-16T00:48:10.190Z,5.60
2018-07-16T00:50:38.790Z,5.70
2018-07-16T00:53:07.356Z,5.60
2018-07-16T00:55:36.001Z,6.13
2018-07-16T00:58:04.613Z,5.70
2018-07-16T01:00:33.293Z,5.17
2018-07-16T01:03:01.909Z,5.20
2018-07-16T01:05:30.564Z,4.90
2018-07-16T01:07:59.173Z,5.97
2018-07-16T01:10:27.850Z,6.43
2018-07-16T01:12:56.449Z,6.63
2018-07-16T01:15:25.070Z,6.37
2018-07-16T01:17:53.702Z,6.00
2018-07-16T01:20:23.025Z,5.70
2018-07-16T01:22:51.634Z,5.67
2018-07-16T01:25:20.246Z,6.40
2018-07-16T01:27:48.851Z,6.23
2018-07-16T01:30:17.458Z,6.47
2018-07-16T01:32:46.041Z,6.30
2018-07-16T01:35:14.721Z,6.70
2018-07-16T01:37:43.298Z,6.00
2018-07-16T01:40:11.936Z,6.60
2018-07-16T01:42:40.555Z,7.70
2018-07-16T01:45:09.154Z,8.20
2018-07-16T01:47:37.762Z,7.00
2018-07-16T01:50:06.334Z,7.63
2018-07-16T01:52:35.386Z,8.20
2018-07-16T01:55:04.182Z,8.00
2018-07-16T01:57:33.085Z,7.20
2018-07-16T02:00:02.296Z,7.37
2018-07-16T02:02:30.898Z,7.90
2018-07-16T02:04:59.668Z,7.47
2018-07-16T02:07:28.270Z,8.50
2018-07-16T02:09:56.853Z,7.90
2018-07-16T02:12:25.467Z,8.07
2018-07-16T02:14:54.133Z,8.00
2018-07-16T02:17:22.737Z,7.60
2018-07-16T02:19:51.366Z,6.93
2018-07-16T02:22:19.994Z,7.23
2018-07-16T02:24:48.608Z,7.50
2018-07-16T02:27:17.769Z,7.10
2018-07-16T02:29:46.375Z,6.30
2018-07-16T02:32:14.982Z,7.43
2018-07-16T02:34:43.918Z,7.60
2018-07-16T02:37:12.509Z,7.20
2018-07-16T02:39:41.113Z,7.03
2018-07-16T02:42:09.863Z,7.43
2018-07-16T02:44:38.489Z,7.80
2018-07-16T02:47:07.101Z,7.53
2018-07-16T02:49:35.710Z,7.60
2018-07-16T02:52:04.300Z,7.60
2018-07-16T02:54:32.870Z,6.90
2018-07-16T02:57:01.670Z,6.97
2018-07-16T02:59:30.365Z,6.90
2018-07-16T03:01:58.972Z,7.30
2018-07-16T03:04:27.590Z,7.33
2018-07-16T03:06:56.234Z,6.50
2018-07-16T03:09:25.562Z,7.90
2018-07-16T03:11:54.166Z,6.97
2018-07-16T03:14:24.185Z,5.90
2018-07-16T03:16:52.811Z,6.30
2018-07-16T03:19:21.449Z,6.07
2018-07-16T03:21:50.073Z,6.73
2018-07-16T03:24:18.739Z,5.90
2018-07-16T03:26:47.316Z,5.50
2018-07-16T03:29:15.917Z,5.53
2018-07-16T03:31:44.524Z,6.27
2018-07-16T03:34:13.133Z,5.90
2018-07-16T03:36:41.771Z,6.10
2018-07-16T03:39:10.839Z,6.63
2018-07-16T03:41:39.460Z,6.10
2018-07-16T03:44:08.202Z,6.17
2018-07-16T03:46:36.897Z,6.30
2018-07-16T03:49:05.489Z,5.63
2018-07-16T03:51:34.109Z,6.30
2018-07-16T03:54:02.771Z,5.83
2018-07-16T03:56:31.366Z,5.90
2018-07-16T03:58:59.958Z,6.10
2018-07-16T04:01:28.685Z,5.90
2018-07-16T04:03:57.295Z,7.00
2018-07-16T04:06:25.902Z,6.20
2018-07-16T04:08:54.509Z,5.23
2018-07-16T04:11:23.366Z,5.67
2018-07-16T04:13:51.991Z,6.90
2018-07-16T04:16:20.629Z,7.00
2018-07-16T04:18:49.206Z,6.73
2018-07-16T04:21:17.988Z,6.83
2018-07-16T04:23:46.630Z,7.53
2018-07-16T04:26:15.234Z,8.30
2018-07-16T04:28:43.845Z,9.50
2018-07-16T04:31:12.469Z,6.70
2018-07-16T04:33:41.072Z,7.50
2018-07-16T04:36:09.742Z,6.70
2018-07-16T04:38:38.366Z,7.00
2018-07-16T04:41:07.046Z,5.83
2018-07-16T04:43:35.707Z,6.63
2018-07-16T04:46:04.316Z,5.87
2018-07-16T04:48:33.217Z,5.57
2018-07-16T04:51:02.229Z,5.73
2018-07-16T04:53:30.874Z,5.70
2018-07-16T04:55:59.458Z,5.43
2018-07-16T04:58:28.160Z,5.70
2018-07-16T05:00:56.847Z,5.13
2018-07-16T05:03:25.511Z,4.93
2018-07-16T05:05:55.204Z,5.10
2018-07-16T05:08:23.894Z,5.90
2018-07-16T05:10:54.208Z,5.57
2018-07-16T05:13:23.338Z,6.47
2018-07-16T05:15:51.957Z,6.07
2018-07-16T05:18:20.976Z,5.80
2018-07-16T05:20:49.530Z,5.57
2018-07-16T05:23:18.165Z,5.93
2018-07-16T05:25:46.773Z,5.93
2018-07-16T05:28:15.395Z,5.13
2018-07-16T05:30:44.061Z,5.47
2018-07-16T05:33:12.673Z,5.60
2018-07-16T05:35:41.333Z,6.47
2018-07-16T05:38:09.921Z,6.20
2018-07-16T05:40:38.562Z,6.40
2018-07-16T05:43:07.838Z,6.13
2018-07-16T05:45:36.661Z,5.53
2018-07-16T05:48:05.351Z,6.00
2018-07-16T05:50:33.963Z,5.57
2018-07-16T05:53:02.626Z,5.23
2018-07-16T05:55:31.328Z,6.23
2018-07-16T05:57:59.998Z,5.43
2018-07-16T06:00:28.666Z,5.00
2018-07-16T06:02:57.378Z,5.37
2018-07-16T06:05:26.152Z,6.20
2018-07-16T06:07:54.774Z,5.50
2018-07-16T06:10:23.431Z,5.73
2018-07-16T06:12:52.217Z,5.80
2018-07-16T06:15:21.172Z,5.17
2018-07-16T06:17:49.889Z,5.37
2018-07-16T06:20:18.575Z,5.70
2018-07-16T06:22:47.177Z,5.40
2018-07-16T06:25:16.074Z,5.77
2018-07-16T06:27:44.913Z,5.60
2018-07-16T06:30:13.556Z,5.97
2018-07-16T06:32:42.237Z,4.67
2018-07-16T06:35:10.870Z,5.10
2018-07-16T06:37:39.520Z,5.40
2018-07-16T06:40:08.189Z,5.70
2018-07-16T06:42:36.825Z,6.07
2018-07-16T06:45:05.662Z,6.10
2018-07-16T06:47:34.252Z,5.23
2018-07-16T06:50:02.944Z,5.80
2018-07-16T06:52:31.605Z,5.60
2018-07-16T06:55:00.277Z,5.83
2018-07-16T06:57:28.876Z,4.60
2018-07-16T06:59:57.522Z,5.97
2018-07-16T07:02:26.272Z,6.10
2018-07-16T07:04:55.448Z,5.77
2018-07-16T07:07:24.042Z,5.70
2018-07-16T07:09:52.839Z,4.93
2018-07-16T07:12:21.546Z,5.50
2018-07-16T07:14:50.462Z,5.70
2018-07-16T07:17:19.111Z,5.13
2018-07-16T07:19:47.714Z,6.30
2018-07-16T07:22:16.348Z,5.67
2018-07-16T07:24:44.927Z,6.40
2018-07-16T07:27:13.540Z,6.60
2018-07-16T07:29:42.148Z,5.90
2018-07-16T07:32:11.241Z,6.50
2018-07-16T07:34:39.923Z,5.93
2018-07-16T07:37:08.607Z,6.47
2018-07-16T07:39:37.285Z,5.63
2018-07-16T07:42:06.067Z,6.00
2018-07-16T07:44:34.673Z,6.13
2018-07-16T07:47:03.297Z,5.80
2018-07-16T07:49:31.998Z,6.00
2018-07-16T07:52:00.637Z,6.57
2018-07-16T07:54:29.408Z,6.23
2018-07-16T07:56:58.441Z,6.40
2018-07-16T07:59:27.118Z,5.90
2018-07-16T08:01:55.814Z,6.63
2018-07-16T08:04:24.465Z,5.93
2018-07-16T08:06:58.225Z,6.40
2018-07-16T08:09:26.834Z,5.67
2018-07-16T08:11:55.516Z,6.13
2018-07-16T08:14:24.197Z,6.53
2018-07-16T08:16:52.853Z,6.17
2018-07-16T08:19:21.561Z,6.70
2018-07-16T08:21:51.174Z,5.90
2018-07-16T08:24:19.902Z,6.10
2018-07-16T08:26:48.725Z,6.43
2018-07-16T08:29:17.357Z,6.67
2018-07-16T08:31:46.120Z,6.57
2018-07-16T08:34:14.933Z,6.20
2018-07-16T08:36:43.560Z,5.50
2018-07-16T08:39:12.270Z,6.13
2018-07-16T08:41:41.710Z,6.27
2018-07-16T08:44:10.306Z,5.20
2018-07-16T08:46:38.963Z,5.50
2018-07-16T08:49:07.650Z,7.47
2018-07-16T08:51:36.331Z,6.50
2018-07-16T08:54:04.970Z,5.87
2018-07-16T08:56:33.754Z,6.27
2018-07-16T08:59:02.844Z,6.30
2018-07-16T09:01:31.488Z,5.63
2018-07-16T09:04:00.238Z,5.07
2018-07-16T09:06:28.861Z,5.70
2018-07-16T09:08:57.617Z,6.07
2018-07-16T09:11:26.259Z,6.20
2018-07-16T09:13:54.884Z,5.93
2018-07-16T09:16:23.555Z,5.90
2018-07-16T09:18:52.349Z,5.97
2018-07-16T09:21:21.036Z,6.00
2018-07-16T09:23:49.844Z,5.97
2018-07-16T09:26:18.498Z,6.30
2018-07-16T09:28:47.193Z,6.07
2018-07-16T09:31:15.870Z,5.90
2018-07-16T09:33:44.514Z,5.80
2018-07-16T09:36:13.191Z,5.63
2018-07-16T09:38:44.388Z,5.90
2018-07-16T09:41:13.311Z,5.57
2018-07-16T09:43:42.031Z,5.97
2018-07-16T09:46:10.875Z,5.93
2018-07-16T09:48:39.673Z,5.30
2018-07-16T09:51:08.409Z,5.97
2018-07-16T09:53:37.083Z,5.57
2018-07-16T09:56:06.080Z,5.57
2018-07-16T09:58:34.758Z,5.97
2018-07-16T10:01:08.771Z,5.93
2018-07-16T10:03:37.757Z,5.47
2018-07-16T10:06:06.561Z,5.30
2018-07-16T10:08:35.249Z,5.73
2018-07-16T10:11:03.905Z,6.10
2018-07-16T10:13:32.621Z,7.10
2018-07-16T10:16:01.373Z,6.80
2018-07-16T10:18:30.141Z,6.17
2018-07-16T10:20:58.846Z,6.00
2018-07-16T10:23:27.657Z,6.03
2018-07-16T10:25:56.555Z,6.73
2018-07-16T10:28:25.034Z,6.30
2018-07-16T10:30:54.408Z,6.13
2018-07-16T10:33:23.104Z,6.13
2018-07-16T10:35:51.882Z,6.30
2018-07-16T10:38:20.670Z,6.10
2018-07-16T10:40:49.415Z,6.13
2018-07-16T10:43:18.058Z,6.40
2018-07-16T10:45:46.843Z,6.40
2018-07-16T10:48:15.569Z,6.13
2018-07-16T10:50:44.301Z,6.83
2018-07-16T10:53:12.953Z,6.17
2018-07-16T10:55:41.627Z,5.67
2018-07-16T10:58:10.570Z,6.40
2018-07-16T11:00:39.570Z,6.00
2018-07-16T11:03:09.919Z,6.23
2018-07-16T11:05:38.546Z,5.93
2018-07-16T11:08:07.377Z,6.60
2018-07-16T11:10:36.337Z,7.13
2018-07-16T11:13:05.120Z,6.47
2018-07-16T11:15:33.878Z,5.40
2018-07-16T11:18:02.738Z,5.40
2018-07-16T11:20:32.042Z,5.63
2018-07-16T11:23:00.762Z,6.03
2018-07-16T11:25:29.843Z,5.17
2018-07-16T11:27:58.579Z,5.20
2018-07-16T11:30:27.280Z,4.93
2018-07-16T11:32:55.916Z,5.00
2018-07-16T11:35:24.660Z,5.60
2018-07-16T11:37:53.302Z,5.67
2018-07-16T11:40:21.986Z,5.67
2018-07-16T11:42:50.614Z,5.30
2018-07-16T11:45:19.354Z,5.17
2018-07-16T11:47:48.161Z,5.40
2018-07-16T11:50:16.807Z,5.80
2018-07-16T11:52:45.469Z,5.77
2018-07-16T11:55:14.194Z,6.30
2018-07-16T11:57:42.797Z,6.47
2018-07-16T12:00:11.532Z,5.53
2018-07-16T12:02:40.165Z,5.83
2018-07-16T12:05:08.860Z,6.00
2018-07-16T12:07:37.448Z,5.70
2018-07-16T12:10:06.204Z,5.53
2018-07-16T12:12:35.035Z,4.87
2018-07-16T12:15:03.840Z,5.40
2018-07-16T12:17:32.668Z,5.20
2018-07-16T12:20:01.567Z,4.93
2018-07-16T12:22:30.344Z,5.30
2018-07-16T12:24:59.062Z,5.60
2018-07-16T12:27:27.742Z,4.60
2018-07-16T12:29:56.415Z,5.33
2018-07-16T12:32:25.126Z,5.37
2018-07-16T12:34:54.015Z,5.30
2018-07-16T12:37:22.811Z,5.00
2018-07-16T12:39:51.437Z,5.50
2018-07-16T12:42:20.407Z,5.83
2018-07-16T12:44:49.213Z,6.10
2018-07-16T12:47:17.866Z,5.10
2018-07-16T12:49:46.507Z,5.43
2018-07-16T12:52:15.147Z,5.37
2018-07-16T12:54:43.985Z,6.00
2018-07-16T12:57:12.765Z,5.03
2018-07-16T12:59:41.358Z,5.00
2018-07-16T13:02:10.826Z,5.90
2018-07-16T13:04:39.778Z,5.20
2018-07-16T13:07:10.605Z,5.17
2018-07-16T13:09:39.588Z,4.80
2018-07-16T13:12:08.404Z,4.87
2018-07-16T13:14:37.089Z,5.03
2018-07-16T13:17:05.759Z,5.70
2018-07-16T13:19:34.557Z,4.60
2018-07-16T13:22:03.315Z,4.47
2018-07-16T13:24:31.938Z,4.80
2018-07-16T13:27:01.106Z,4.80
2018-07-16T13:29:30.200Z,4.00
2018-07-16T13:31:58.981Z,4.10
2018-07-16T13:34:27.896Z,4.67
2018-07-16T13:36:56.921Z,4.10
2018-07-16T13:39:25.660Z,3.87
2018-07-16T13:41:54.781Z,4.07
2018-07-16T13:44:23.463Z,3.90
2018-07-16T13:46:52.134Z,3.70
2018-07-16T13:49:26.177Z,4.23
2018-07-16T13:51:54.861Z,4.27
2018-07-16T13:54:23.520Z,3.80
2018-07-16T13:56:52.217Z,4.22
2018-07-16T13:59:20.835Z,3.97
2018-07-16T14:01:50.071Z,4.70
2018-07-16T14:04:18.781Z,4.60
2018-07-16T14:06:47.510Z,3.90
2018-07-16T14:09:16.198Z,4.00
2018-07-16T14:11:44.858Z,4.40
2018-07-16T14:14:13.524Z,9.63
2018-07-16T14:16:42.149Z,4.30
2018-07-16T14:19:11.006Z,4.53
2018-07-16T14:21:39.600Z,5.30
2018-07-16T14:24:08.200Z,4.50
2018-07-16T14:26:36.827Z,4.70
2018-07-16T14:29:05.542Z,4.60
2018-07-16T14:31:34.216Z,4.60
2018-07-16T14:34:02.972Z,5.33
2018-07-16T14:36:32.934Z,5.40
2018-07-16T14:39:03.263Z,4.70
2018-07-16T14:41:32.064Z,5.13
2018-07-16T14:44:00.733Z,5.13
2018-07-16T14:46:29.597Z,4.23
2018-07-16T14:48:58.306Z,4.23
2018-07-16T14:51:26.996Z,4.50
2018-07-16T14:53:55.651Z,4.30
2018-07-16T14:56:24.301Z,4.73
2018-07-16T14:58:52.964Z,4.63
2018-07-16T15:01:21.650Z,5.37
2018-07-16T15:03:50.341Z,5.70
2018-07-16T15:06:19.017Z,6.03
2018-07-16T15:08:47.702Z,6.47
2018-07-16T15:11:16.686Z,7.13
2018-07-16T15:13:45.921Z,7.17
2018-07-16T15:16:14.919Z,8.23
2018-07-16T15:18:43.957Z,7.00
2018-07-16T15:21:14.185Z,7.00
2018-07-16T15:23:42.859Z,8.03
2018-07-16T15:26:13.285Z,9.03
2018-07-16T15:28:42.803Z,9.03
2018-07-16T15:31:12.455Z,10.23
2018-07-16T15:33:41.846Z,8.20
2018-07-16T15:36:12.354Z,9.43
2018-07-16T15:38:42.202Z,8.10
2018-07-16T15:41:11.448Z,7.67
2018-07-16T15:43:41.168Z,7.27
2018-07-16T15:46:09.958Z,6.80
2018-07-16T15:48:38.810Z,6.70
2018-07-16T15:51:07.940Z,5.10
2018-07-16T15:53:37.012Z,4.90
2018-07-16T15:56:06.077Z,4.50
2018-07-16T15:58:35.034Z,4.10
2018-07-16T16:01:04.809Z,3.90
2018-07-16T16:03:33.890Z,3.80
2018-07-16T16:06:03.831Z,3.10
2018-07-16T16:08:32.607Z,3.60
2018-07-16T16:11:01.361Z,3.13
2018-07-16T16:13:32.163Z,3.83
2018-07-16T16:16:01.280Z,3.87
2018-07-16T16:18:30.372Z,3.97
2018-07-16T16:20:59.107Z,3.80
2018-07-16T16:23:27.845Z,4.07
2018-07-16T16:25:56.607Z,3.17
2018-07-16T16:28:25.372Z,3.20
2018-07-16T16:30:54.022Z,3.40
2018-07-16T16:33:22.769Z,3.50
2018-07-16T16:35:51.520Z,3.10
2018-07-16T16:38:20.215Z,3.57
2018-07-16T16:40:48.899Z,3.40
2018-07-16T16:43:17.551Z,3.23
2018-07-16T16:45:46.240Z,3.00
2018-07-16T16:48:15.037Z,3.27
2018-07-16T16:50:43.782Z,3.10
2018-07-16T16:53:12.627Z,3.07
2018-07-16T16:55:41.386Z,2.40
2018-07-16T16:58:10.291Z,3.20
2018-07-16T17:00:39.111Z,3.20
2018-07-16T17:03:07.963Z,3.67
2018-07-16T17:05:36.748Z,2.80
2018-07-16T17:08:06.180Z,3.40
2018-07-16T17:10:37.138Z,3.80
2018-07-16T17:13:05.829Z,3.40
2018-07-16T17:15:34.625Z,3.20
2018-07-16T17:18:03.289Z,3.57
2018-07-16T17:20:31.963Z,2.70
2018-07-16T17:23:00.832Z,3.30
2018-07-16T17:25:29.516Z,3.50
2018-07-16T17:27:58.220Z,3.73
2018-07-16T17:30:26.886Z,4.53
2018-07-16T17:32:57.139Z,4.40
2018-07-16T17:35:25.804Z,3.97
2018-07-16T17:37:54.566Z,4.00
2018-07-16T17:40:23.266Z,4.00
2018-07-16T17:42:52.390Z,3.90
2018-07-16T17:45:21.001Z,4.33
2018-07-16T17:47:49.818Z,3.97
2018-07-16T17:50:18.928Z,3.70
2018-07-16T17:52:47.973Z,4.40
2018-07-16T17:55:16.663Z,3.90
2018-07-16T17:57:45.340Z,4.00
2018-07-16T18:00:13.984Z,4.33
2018-07-16T18:02:42.653Z,4.20
2018-07-16T18:05:11.422Z,4.10
2018-07-16T18:07:40.097Z,5.23
2018-07-16T18:10:08.902Z,4.83
2018-07-16T18:12:37.673Z,4.20
2018-07-16T18:15:06.366Z,4.53
2018-07-16T18:17:35.161Z,5.03
2018-07-16T18:20:03.921Z,5.10
2018-07-16T18:22:32.714Z,4.70
2018-07-16T18:25:01.641Z,5.07
2018-07-16T18:27:32.246Z,4.83
2018-07-16T18:30:01.927Z,4.90
2018-07-16T18:32:31.089Z,4.80
2018-07-16T18:35:01.378Z,5.80
2018-07-16T18:37:32.197Z,4.83
2018-07-16T18:40:00.924Z,3.73
2018-07-16T18:42:29.590Z,4.77
2018-07-16T18:44:59.474Z,4.97
2018-07-16T18:47:28.142Z,5.40
2018-07-16T18:49:56.800Z,4.40
2018-07-16T18:52:25.686Z,5.70
2018-07-16T18:54:54.798Z,5.07
2018-07-16T18:57:23.687Z,5.03
2018-07-16T18:59:52.434Z,4.57
2018-07-16T19:02:21.146Z,4.90
2018-07-16T19:04:49.791Z,5.30
2018-07-16T19:07:21.938Z,4.70
2018-07-16T19:09:51.792Z,5.03
2018-07-16T19:12:20.774Z,4.93
2018-07-16T19:14:49.993Z,5.60
2018-07-16T19:17:18.767Z,5.27
2018-07-16T19:32:42.720Z,6.10
2018-07-16T19:35:12.090Z,7.27
2018-07-16T19:37:40.726Z,7.93
2018-07-16T19:40:09.961Z,7.57
2018-07-16T19:42:39.410Z,9.40
2018-07-16T19:45:08.100Z,8.20
2018-07-16T19:47:37.059Z,8.10
2018-07-16T19:50:07.184Z,9.20
2018-07-16T19:52:36.830Z,8.30
2018-07-16T19:55:05.968Z,8.97
2018-07-16T19:57:34.719Z,8.43
2018-07-16T20:00:03.503Z,9.43
2018-07-16T20:02:32.460Z,8.20
2018-07-16T20:05:02.173Z,8.20
2018-07-16T20:07:30.866Z,8.37
2018-07-16T20:10:00.482Z,8.83
2018-07-16T20:12:32.563Z,8.93
2018-07-16T20:15:02.093Z,8.67
2018-07-16T20:17:31.067Z,7.97
2018-07-16T20:20:00.154Z,8.47
2018-07-16T20:22:29.208Z,7.97
2018-07-16T20:24:58.063Z,8.13
2018-07-16T20:27:26.704Z,8.90
2018-07-16T20:29:55.397Z,8.37
2018-07-16T20:32:24.084Z,8.73
2018-07-16T20:34:52.790Z,8.63
2018-07-16T20:37:21.466Z,7.40
2018-07-16T20:39:50.107Z,8.97
2018-07-16T20:42:18.687Z,8.60
2018-07-16T20:44:47.294Z,7.80
2018-07-16T20:47:15.897Z,8.27
2018-07-16T20:49:44.550Z,8.40
2018-07-16T20:52:13.192Z,6.70
2018-07-16T20:54:41.825Z,7.90
2018-07-16T20:57:10.571Z,7.37
2018-07-16T20:59:39.281Z,7.60
2018-07-16T21:02:09.001Z,7.17
2018-07-16T21:04:37.581Z,7.57
2018-07-16T21:07:06.189Z,6.90
2018-07-16T21:09:34.839Z,6.47
2018-07-16T21:12:03.439Z,7.27
2018-07-16T21:14:32.032Z,7.03
2018-07-16T21:17:00.695Z,7.27
2018-07-16T21:19:29.318Z,6.60
2018-07-16T21:21:57.938Z,6.40
2018-07-16T21:24:26.567Z,7.60
2018-07-16T21:26:55.173Z,6.83
2018-07-16T21:29:23.867Z,6.10
2018-07-16T21:31:52.491Z,7.67
2018-07-16T21:34:21.122Z,7.00
2018-07-16T21:36:49.832Z,6.70
2018-07-16T21:39:18.404Z,6.60
2018-07-16T21:41:46.997Z,6.83
2018-07-16T21:44:15.774Z,7.00
2018-07-16T21:46:44.382Z,6.47
2018-07-16T21:49:13.035Z,6.13
2018-07-16T21:51:43.552Z,6.33
2018-07-16T21:54:12.171Z,6.13
2018-07-16T21:56:40.829Z,6.60
2018-07-16T21:59:09.622Z,6.30
2018-07-16T22:01:38.338Z,6.40
2018-07-16T22:04:07.061Z,6.73
2018-07-16T22:06:35.666Z,6.50
2018-07-16T22:09:04.973Z,7.57
2018-07-16T22:21:14.690Z,6.83
2018-07-16T22:23:43.306Z,6.03
2018-07-16T22:26:12.413Z,5.77
2018-07-16T22:28:41.616Z,5.97
2018-07-16T22:31:11.092Z,6.17
2018-07-16T22:33:39.733Z,5.63
2018-07-16T22:36:09.057Z,6.43
2018-07-16T22:38:37.701Z,5.60
2018-07-16T22:41:06.898Z,5.90
2018-07-16T22:43:35.539Z,5.53
2018-07-16T22:46:04.178Z,5.87
2018-07-16T22:48:34.325Z,5.90
2018-07-16T22:51:03.005Z,5.70
2018-07-16T22:53:31.707Z,6.23
2018-07-16T22:56:00.303Z,4.97
2018-07-16T22:58:28.919Z,5.20
2018-07-16T23:00:57.515Z,5.13
2018-07-16T23:03:26.141Z,5.63
2018-07-16T23:05:54.901Z,5.67
2018-07-16T23:08:23.566Z,6.27
2018-07-16T23:10:52.155Z,6.10
2018-07-16T23:13:20.809Z,6.50
2018-07-16T23:15:49.397Z,5.50
2018-07-16T23:18:17.981Z,6.37
2018-07-16T23:20:46.693Z,5.90
2018-07-16T23:23:15.284Z,6.00
2018-07-16T23:25:44.054Z,6.30
2018-07-16T23:28:17.415Z,6.53
2018-07-16T23:30:46.070Z,5.70
2018-07-16T23:33:15.577Z,6.63
2018-07-16T23:35:44.194Z,6.10
2018-07-16T23:38:12.825Z,6.83
2018-07-16T23:40:41.429Z,6.83
2018-07-16T23:43:10.115Z,5.83
2018-07-16T23:45:38.688Z,6.23
2018-07-16T23:48:08.547Z,6.33
2018-07-16T23:50:37.170Z,6.73
2018-07-16T23:53:05.816Z,6.30
2018-07-16T23:55:34.407Z,6.77
2018-07-16T23:58:03.019Z,6.40
